F/V Adeline Stephen — FGUF — position and weather

sailwx.info

Track history (hours):
 
Tides and Currents Weather Stations Pressure Air Temp Water Temp Dewpoint Dewpoint Depression Visibility Wind Speed Wind Dir Waves Ship Positions

F/V Adeline Stephen

Last reported at 2015-Mar-01 19:33 UTC. Time now 2015-Mar-01 23:33 UTC.
Position N 47°44' W 003°22'.

Length 18 m.

Type: Fishing. MMSI: 228929000.

Date/timePositionNaut miles runAvg speedWind from/ knotsBaromVisibWave heightAir tempDewpointWater temp
2015-Mar-01 19:33N 47°44' W 003°22'0 0.2
2015-Mar-01 18:33N 47°44' W 003°22'0 0.0
2015-Mar-01 17:33N 47°44' W 003°22'1 0.9
2015-Mar-01 16:34N 47°43' W 003°22'8 7.9
2015-Mar-01 15:34N 47°35' W 003°23'  
2015-Feb-25 19:17N 47°26' W 003°09'6 8.7
2015-Feb-25 18:34N 47°32' W 003°14'8 8.5
2015-Feb-25 17:34N 47°39' W 003°21'5 4.7
2015-Feb-25 16:33N 47°44' W 003°22'0 0.1
2015-Feb-25 15:33N 47°44' W 003°22'  
2015-Feb-23 08:12N 47°44' W 003°22'4 6.8
2015-Feb-23 07:33N 47°39' W 003°21'8 7.8
2015-Feb-23 06:31N 47°33' W 003°15'  
2015-Feb-20 02:32N 47°30' W 003°20'8 7.6
2015-Feb-20 01:33N 47°37' W 003°22'7 6.7
2015-Feb-20 00:33N 47°44' W 003°22'0 0.1
2015-Feb-19 23:33N 47°44' W 003°22'0 0.0
2015-Feb-19 22:33N 47°44' W 003°22'0 0.0
2015-Feb-19 21:33N 47°44' W 003°22'0 0.0
2015-Feb-19 20:33N 47°44' W 003°22'0 0.0
2015-Feb-19 19:33N 47°44' W 003°22'  
Track history (hours):
 
Tides and Currents Weather Stations Pressure Air Temp Water Temp Dewpoint Dewpoint Depression Visibility Wind Speed Wind Dir Waves Ship Positions

F/V Adeline Stephen

Last reported at 2015-Mar-01 19:33 UTC. Time now 2015-Mar-01 23:33 UTC.
Position N 47°44' W 003°22'.

Length 18 m.

Type: Fishing. MMSI: 228929000.

Date/timePositionNaut miles runAvg speedWind from/ knotsBaromVisibWave heightAir tempDewpointWater temp
2015-Mar-01 19:33N 47°44' W 003°22'0 0.2
2015-Mar-01 18:33N 47°44' W 003°22'0 0.0
2015-Mar-01 17:33N 47°44' W 003°22'1 0.9
2015-Mar-01 16:34N 47°43' W 003°22'8 7.9
2015-Mar-01 15:34N 47°35' W 003°23'  
2015-Feb-25 19:17N 47°26' W 003°09'6 8.7
2015-Feb-25 18:34N 47°32' W 003°14'8 8.5
2015-Feb-25 17:34N 47°39' W 003°21'5 4.7
2015-Feb-25 16:33N 47°44' W 003°22'0 0.1
2015-Feb-25 15:33N 47°44' W 003°22'  
2015-Feb-23 08:12N 47°44' W 003°22'4 6.8
2015-Feb-23 07:33N 47°39' W 003°21'8 7.8
2015-Feb-23 06:31N 47°33' W 003°15'  
2015-Feb-20 02:32N 47°30' W 003°20'8 7.6
2015-Feb-20 01:33N 47°37' W 003°22'7 6.7
2015-Feb-20 00:33N 47°44' W 003°22'0 0.1
2015-Feb-19 23:33N 47°44' W 003°22'0 0.0
2015-Feb-19 22:33N 47°44' W 003°22'0 0.0
2015-Feb-19 21:33N 47°44' W 003°22'0 0.0
2015-Feb-19 20:33N 47°44' W 003°22'0 0.0
2015-Feb-19 19:33N 47°44' W 003°22'  

Dump ship's entire track history